createdAt,value
2022-11-25T00:02:25.107Z,64.05
2022-11-25T00:05:28.473Z,64.42
2022-11-25T00:08:30.031Z,64.13
2022-11-25T00:11:36.730Z,64.45
2022-11-25T00:14:38.305Z,64.32
2022-11-25T00:17:39.815Z,64.52
2022-11-25T00:20:41.337Z,64.31
2022-11-25T00:23:43.185Z,64.44
2022-11-25T00:26:45.017Z,64.42
2022-11-25T00:29:46.520Z,64.18
2022-11-25T00:32:48.151Z,64.19
2022-11-25T00:35:49.643Z,64.31
2022-11-25T00:39:15.801Z,64.23
2022-11-25T00:42:35.828Z,64.34
2022-11-25T00:45:37.426Z,64.28
2022-11-25T00:48:38.957Z,64.51
2022-11-25T00:51:40.527Z,64.52
2022-11-25T00:54:42.781Z,64.41
2022-11-25T00:57:44.269Z,64.64
2022-11-25T01:00:45.831Z,64.61
2022-11-25T01:03:51.396Z,64.46
2022-11-25T01:06:54.153Z,64.38
2022-11-25T01:09:55.799Z,64.29
2022-11-25T01:12:57.342Z,64.66
2022-11-25T01:16:02.497Z,64.53
2022-11-25T01:19:04.206Z,64.65
2022-11-25T01:22:10.859Z,64.46
2022-11-25T01:25:12.423Z,64.47
2022-11-25T01:28:14.021Z,64.46
2022-11-25T01:31:18.189Z,64.42
2022-11-25T01:34:23.582Z,64.70
2022-11-25T01:37:25.154Z,64.50
2022-11-25T01:40:26.674Z,64.46
2022-11-25T01:43:29.410Z,64.69
2022-11-25T01:46:41.664Z,64.47
2022-11-25T01:50:05.190Z,64.44
2022-11-25T01:53:10.005Z,64.50
2022-11-25T01:56:11.638Z,64.75
2022-11-25T01:59:13.764Z,64.28
2022-11-25T02:02:16.953Z,64.38
2022-11-25T02:05:23.268Z,64.43
2022-11-25T02:08:26.481Z,64.46
2022-11-25T02:11:30.809Z,64.70
2022-11-25T02:14:32.379Z,64.47
2022-11-25T02:17:34.348Z,64.46
2022-11-25T02:20:38.235Z,64.69
2022-11-25T02:23:53.741Z,64.63
2022-11-25T02:26:55.463Z,64.57
2022-11-25T02:29:57.032Z,64.63
2022-11-25T02:33:00.262Z,64.60
2022-11-25T02:36:18.816Z,64.44
2022-11-25T02:39:21.465Z,64.71
2022-11-25T02:42:24.834Z,64.48
2022-11-25T02:45:57.702Z,64.61
2022-11-25T02:49:09.042Z,64.67
2022-11-25T02:52:11.424Z,64.39
2022-11-25T02:55:12.955Z,64.76
2022-11-25T02:58:15.190Z,64.83
2022-11-25T03:01:16.893Z,64.74
2022-11-25T03:04:18.728Z,64.71
2022-11-25T03:07:20.246Z,64.82
2022-11-25T03:10:21.943Z,64.67
2022-11-25T03:13:23.566Z,64.66
2022-11-25T03:16:25.227Z,64.38
2022-11-25T03:19:26.834Z,64.69
2022-11-25T03:22:28.410Z,64.64
2022-11-25T03:25:30.180Z,64.40
2022-11-25T03:28:31.709Z,64.74
2022-11-25T03:31:33.387Z,64.74
2022-11-25T03:34:35.188Z,64.87
2022-11-25T03:37:37.587Z,64.91
2022-11-25T03:40:39.159Z,64.78
2022-11-25T03:43:40.698Z,64.60
2022-11-25T03:46:42.265Z,64.75
2022-11-25T03:49:43.787Z,64.54
2022-11-25T03:52:45.342Z,64.90
2022-11-25T03:55:48.263Z,64.65
2022-11-25T03:58:49.847Z,64.49
2022-11-25T04:01:51.764Z,64.62
2022-11-25T04:04:53.330Z,64.65
2022-11-25T04:07:57.871Z,64.61
2022-11-25T04:10:59.791Z,64.62
2022-11-25T04:14:01.300Z,64.43
2022-11-25T04:17:02.955Z,64.52
2022-11-25T04:20:05.088Z,64.45
2022-11-25T04:23:07.183Z,64.72
2022-11-25T04:26:08.711Z,64.49
2022-11-25T04:29:10.295Z,64.57
2022-11-25T04:32:11.832Z,64.50
2022-11-25T04:35:13.391Z,64.84
2022-11-25T04:38:14.923Z,64.61
2022-11-25T04:41:16.685Z,64.65
2022-11-25T04:44:18.237Z,64.67
2022-11-25T04:47:19.771Z,64.47
2022-11-25T04:50:24.083Z,64.70
2022-11-25T04:53:25.644Z,64.65
2022-11-25T04:56:27.222Z,64.80
2022-11-25T04:59:40.734Z,64.71
2022-11-25T05:02:42.318Z,64.77
2022-11-25T05:05:43.839Z,64.67
2022-11-25T05:08:49.151Z,64.54
2022-11-25T05:11:50.784Z,64.39
2022-11-25T05:14:52.744Z,64.60
2022-11-25T05:17:54.255Z,65.13
2022-11-25T05:20:55.805Z,64.53
2022-11-25T05:23:57.308Z,64.49
2022-11-25T05:26:58.851Z,64.81
2022-11-25T05:30:00.454Z,64.88
2022-11-25T05:33:02.008Z,64.64
2022-11-25T05:36:04.827Z,64.62
2022-11-25T05:39:06.371Z,64.90
2022-11-25T05:42:08.714Z,65.24
2022-11-25T05:45:11.263Z,64.95
2022-11-25T05:48:12.870Z,64.81
2022-11-25T05:51:14.420Z,64.82
2022-11-25T05:54:16.196Z,64.83
2022-11-25T05:57:17.805Z,64.96
2022-11-25T06:00:25.001Z,64.69
2022-11-25T06:03:29.426Z,64.66
2022-11-25T06:06:32.254Z,64.89
2022-11-25T06:09:33.928Z,65.46
2022-11-25T06:12:35.439Z,64.91
2022-11-25T06:15:44.693Z,65.02
2022-11-25T06:18:46.301Z,64.67
2022-11-25T06:21:48.758Z,64.83
2022-11-25T06:24:57.525Z,64.62
2022-11-25T06:28:18.564Z,64.77
2022-11-25T06:31:22.810Z,64.64
2022-11-25T06:34:24.515Z,64.68
2022-11-25T06:37:26.072Z,64.67
2022-11-25T06:40:27.632Z,64.65
2022-11-25T06:43:29.847Z,64.87
2022-11-25T06:46:31.516Z,64.83
2022-11-25T06:49:33.176Z,64.62
2022-11-25T06:52:34.738Z,64.60
2022-11-25T06:55:36.311Z,64.84
2022-11-25T06:58:39.519Z,64.38
2022-11-25T07:01:41.117Z,64.73
2022-11-25T07:04:42.874Z,64.58
2022-11-25T07:07:44.487Z,64.68
2022-11-25T07:10:46.166Z,64.59
2022-11-25T07:13:48.412Z,64.75
2022-11-25T07:16:50.141Z,64.82
2022-11-25T07:19:51.684Z,64.83
2022-11-25T07:22:53.270Z,64.86
2022-11-25T07:25:54.814Z,64.69
2022-11-25T07:28:59.798Z,64.92
2022-11-25T07:32:04.509Z,65.07
2022-11-25T07:35:10.392Z,64.83
2022-11-25T07:38:12.177Z,64.78
2022-11-25T07:41:19.715Z,64.94
2022-11-25T07:44:21.921Z,64.94
2022-11-25T07:47:25.013Z,65.09
2022-11-25T07:50:26.587Z,64.91
2022-11-25T07:53:28.184Z,64.91
2022-11-25T07:56:30.457Z,64.88
2022-11-25T07:59:32.005Z,64.96
2022-11-25T08:02:33.592Z,65.02
2022-11-25T08:05:35.201Z,65.77
2022-11-25T08:08:38.345Z,65.55
2022-11-25T08:11:40.937Z,65.43
2022-11-25T08:14:42.513Z,65.25
2022-11-25T08:17:44.045Z,65.17
2022-11-25T08:20:45.628Z,65.06
2022-11-25T08:23:48.876Z,65.10
2022-11-25T08:26:51.379Z,65.01
2022-11-25T08:29:52.929Z,65.05
2022-11-25T08:32:54.512Z,65.17
2022-11-25T08:35:56.299Z,65.12
2022-11-25T08:39:00.166Z,65.18
2022-11-25T08:42:06.101Z,65.03
2022-11-25T08:45:09.160Z,65.11
2022-11-25T08:48:10.732Z,65.19
2022-11-25T08:51:15.398Z,65.01
2022-11-25T08:54:17.157Z,65.11
2022-11-25T08:57:18.750Z,65.07
2022-11-25T09:00:21.457Z,65.02
2022-11-25T09:03:23.125Z,65.19
2022-11-25T09:06:27.171Z,65.20
2022-11-25T09:09:28.896Z,65.11
2022-11-25T09:12:30.595Z,65.22
2022-11-25T09:15:32.738Z,65.18
2022-11-25T09:18:35.482Z,65.24
2022-11-25T09:21:37.040Z,65.26
2022-11-25T09:24:38.667Z,66.02
2022-11-25T09:27:40.241Z,66.27
2022-11-25T09:30:41.899Z,65.63
2022-11-25T09:33:43.567Z,65.26
2022-11-25T09:36:45.226Z,65.28
2022-11-25T09:39:46.795Z,65.33
2022-11-25T09:43:21.189Z,65.31
2022-11-25T09:46:45.722Z,65.24
2022-11-25T09:50:00.974Z,65.37
2022-11-25T09:53:24.367Z,65.89
2022-11-25T09:56:35.002Z,65.56
2022-11-25T09:59:46.194Z,65.42
2022-11-25T10:02:55.369Z,65.38
2022-11-25T10:06:27.186Z,65.28
2022-11-25T10:09:32.413Z,65.52
2022-11-25T10:12:42.412Z,65.29
2022-11-25T10:15:48.947Z,65.47
2022-11-25T10:18:59.858Z,65.31
2022-11-25T10:22:31.113Z,65.39
2022-11-25T10:25:42.732Z,65.42
2022-11-25T10:28:56.940Z,65.45
2022-11-25T10:32:25.561Z,65.54
2022-11-25T10:35:35.779Z,65.53
2022-11-25T10:38:41.629Z,65.95
2022-11-25T10:41:47.958Z,65.75
2022-11-25T10:44:49.707Z,65.55
2022-11-25T10:48:44.618Z,65.83
2022-11-25T10:51:48.232Z,65.58
2022-11-25T10:55:25.794Z,65.43
2022-11-25T10:58:31.744Z,65.52
2022-11-25T11:01:33.410Z,65.44
2022-11-25T11:04:36.739Z,65.37
2022-11-25T11:07:41.268Z,65.48
2022-11-25T11:10:43.390Z,65.41
2022-11-25T11:13:46.858Z,65.48
2022-11-25T11:16:56.595Z,65.39
2022-11-25T11:20:15.418Z,65.56
2022-11-25T11:23:17.214Z,65.41
2022-11-25T11:26:27.158Z,65.40
2022-11-25T11:29:28.712Z,66.31
2022-11-25T11:32:30.575Z,65.97
2022-11-25T11:35:41.808Z,65.77
2022-11-25T11:38:54.171Z,65.56
2022-11-25T11:42:00.969Z,65.64
2022-11-25T11:45:23.494Z,65.61
2022-11-25T11:48:53.577Z,65.63
2022-11-25T11:52:22.679Z,65.53
2022-11-25T11:56:11.878Z,65.53
2022-11-25T11:59:48.946Z,65.42
2022-11-25T12:03:02.483Z,65.44
2022-11-25T12:06:06.464Z,65.41
2022-11-25T12:09:14.840Z,65.57
2022-11-25T12:12:19.606Z,65.58
2022-11-25T12:16:10.390Z,65.40
2022-11-25T12:19:17.817Z,65.56
2022-11-25T12:22:32.454Z,65.31
2022-11-25T12:25:41.245Z,65.82
2022-11-25T12:28:51.398Z,66.17
2022-11-25T12:32:24.410Z,65.52
2022-11-25T12:35:55.280Z,65.58
2022-11-25T12:39:02.203Z,65.54
2022-11-25T12:42:12.120Z,65.52
2022-11-25T12:45:25.021Z,65.49
2022-11-25T12:48:26.604Z,65.39
2022-11-25T12:52:05.406Z,65.47
2022-11-25T12:55:33.991Z,65.34
2022-11-25T12:59:01.876Z,65.53
2022-11-25T13:02:26.594Z,65.76
2022-11-25T13:05:46.024Z,65.82
2022-11-25T13:09:04.928Z,65.59
2022-11-25T13:12:25.509Z,65.93
2022-11-25T13:15:38.037Z,65.66
2022-11-25T13:18:44.439Z,65.52
2022-11-25T13:21:57.913Z,65.42
2022-11-25T13:24:59.622Z,65.45
2022-11-25T13:28:04.716Z,65.40
2022-11-25T13:31:21.666Z,65.52
2022-11-25T13:34:36.735Z,65.45
2022-11-25T13:37:40.804Z,65.45
2022-11-25T13:40:42.391Z,65.65
2022-11-25T13:44:01.182Z,65.35
2022-11-25T13:47:40.169Z,65.36
2022-11-25T13:51:09.340Z,65.49
2022-11-25T13:54:07.729Z,65.39
2022-11-25T13:57:11.946Z,65.60
2022-11-25T14:00:19.145Z,65.64
2022-11-25T14:03:20.810Z,65.41
2022-11-25T14:06:52.536Z,65.47
2022-11-25T14:10:09.663Z,65.51
2022-11-25T14:13:35.990Z,65.39
2022-11-25T14:17:21.119Z,65.50
2022-11-25T14:21:01.670Z,65.41
2022-11-25T14:24:11.140Z,65.59
2022-11-25T14:27:19.887Z,65.41
2022-11-25T14:30:21.644Z,65.35
2022-11-25T14:33:33.126Z,65.58
2022-11-25T14:36:40.777Z,65.45
2022-11-25T14:39:56.863Z,65.21
2022-11-25T14:43:12.315Z,65.47
2022-11-25T14:46:21.239Z,65.46
2022-11-25T14:52:47.650Z,65.35
2022-11-25T14:55:50.003Z,65.46
2022-11-25T14:58:54.213Z,65.37
2022-11-25T15:01:55.933Z,65.54
2022-11-25T15:05:06.614Z,65.26
2022-11-25T15:08:08.215Z,65.40
2022-11-25T15:11:21.133Z,65.26
2022-11-25T15:14:29.396Z,65.46
2022-11-25T15:17:34.967Z,65.46
2022-11-25T15:20:36.760Z,64.92
2022-11-25T15:23:40.411Z,65.01
2022-11-25T15:26:51.655Z,65.08
2022-11-25T15:29:55.522Z,64.95
2022-11-25T15:32:57.528Z,65.21
2022-11-25T15:35:59.124Z,65.14
2022-11-25T15:39:20.461Z,64.87
2022-11-25T15:42:28.435Z,65.13
2022-11-25T15:45:52.743Z,64.94
2022-11-25T15:48:58.756Z,64.98
2022-11-25T15:52:03.055Z,65.06
2022-11-25T15:55:20.261Z,65.14
2022-11-25T15:58:24.228Z,65.04
2022-11-25T16:01:28.442Z,65.19
2022-11-25T16:04:30.042Z,65.19
2022-11-25T16:07:31.747Z,65.20
2022-11-25T16:10:49.521Z,65.04
2022-11-25T16:13:52.375Z,65.13
2022-11-25T16:17:01.862Z,65.11
2022-11-25T16:20:03.828Z,64.97
2022-11-25T16:23:10.097Z,64.93
2022-11-25T16:26:11.619Z,65.12
2022-11-25T16:29:18.912Z,65.05
2022-11-25T16:32:23.553Z,64.96
2022-11-25T16:35:25.079Z,64.94
2022-11-25T16:38:26.844Z,64.83
2022-11-25T16:41:28.552Z,64.95
2022-11-25T16:44:32.363Z,64.95
2022-11-25T16:47:33.925Z,64.80
2022-11-25T16:50:35.469Z,64.64
2022-11-25T16:53:37.036Z,64.98
2022-11-25T16:56:41.730Z,64.72
2022-11-25T16:59:44.846Z,64.67
2022-11-25T17:02:46.483Z,64.90
2022-11-25T17:05:48.302Z,64.69
2022-11-25T17:08:50.837Z,64.58
2022-11-25T17:11:56.461Z,64.65
2022-11-25T17:15:00.068Z,64.67
2022-11-25T17:18:03.846Z,64.55
2022-11-25T17:21:05.568Z,64.71
2022-11-25T17:24:14.753Z,64.86
2022-11-25T17:27:21.537Z,64.63
2022-11-25T17:30:25.730Z,64.59
2022-11-25T17:33:27.328Z,64.89
2022-11-25T17:36:28.879Z,64.87
2022-11-25T17:39:30.449Z,64.79
2022-11-25T17:42:33.275Z,64.78
2022-11-25T17:45:34.890Z,64.55
2022-11-25T17:48:36.490Z,64.67
2022-11-25T17:51:38.072Z,64.75
2022-11-25T17:54:40.293Z,64.82
2022-11-25T17:57:42.013Z,64.74
2022-11-25T18:00:44.961Z,64.75
2022-11-25T18:03:49.427Z,64.77
2022-11-25T18:06:51.367Z,64.75
2022-11-25T18:09:52.986Z,64.91
2022-11-25T18:12:57.111Z,64.99
2022-11-25T18:15:58.667Z,64.94
2022-11-25T18:19:00.445Z,64.79
2022-11-25T18:22:19.468Z,64.89
2022-11-25T18:25:27.228Z,65.38
2022-11-25T18:28:31.997Z,64.92
2022-11-25T18:31:33.611Z,64.82
2022-11-25T18:34:35.525Z,64.82
2022-11-25T18:37:37.327Z,64.55
2022-11-25T18:40:42.544Z,64.42
2022-11-25T18:43:44.096Z,64.49
2022-11-25T18:46:46.050Z,64.46
2022-11-25T18:49:52.357Z,64.52
2022-11-25T18:52:56.911Z,64.66
2022-11-25T18:55:58.490Z,64.44
2022-11-25T18:59:01.517Z,64.40
2022-11-25T19:02:03.411Z,64.47
2022-11-25T19:05:32.854Z,64.42
2022-11-25T19:08:34.519Z,64.37
2022-11-25T19:11:39.811Z,64.30
2022-11-25T19:14:42.232Z,64.53
2022-11-25T19:17:48.260Z,64.36
2022-11-25T19:20:49.867Z,64.37
2022-11-25T19:23:51.489Z,64.53
2022-11-25T19:26:56.200Z,64.36
2022-11-25T19:29:57.838Z,64.59
2022-11-25T19:33:01.511Z,64.38
2022-11-25T19:36:03.757Z,64.43
2022-11-25T19:39:16.260Z,64.38
2022-11-25T19:42:18.281Z,64.42
2022-11-25T19:45:20.776Z,64.36
2022-11-25T19:48:24.987Z,64.36
2022-11-25T19:51:32.153Z,64.52
2022-11-25T19:54:33.662Z,64.42
2022-11-25T19:57:35.236Z,64.24
2022-11-25T20:00:37.146Z,64.34
2022-11-25T20:03:40.937Z,64.23
2022-11-25T20:06:44.446Z,64.27
2022-11-25T20:09:47.091Z,64.35
2022-11-25T20:12:49.267Z,64.38
2022-11-25T20:15:51.239Z,64.10
2022-11-25T20:18:53.485Z,64.33
2022-11-25T20:21:56.523Z,64.24
2022-11-25T20:25:00.664Z,64.10
2022-11-25T20:28:02.188Z,64.30
2022-11-25T20:31:03.771Z,64.25
2022-11-25T20:34:05.411Z,64.38
2022-11-25T20:37:08.996Z,64.00
2022-11-25T20:40:20.514Z,64.22
2022-11-25T20:43:36.741Z,64.38
2022-11-25T20:46:38.472Z,64.36
2022-11-25T20:49:40.211Z,64.21
2022-11-25T20:52:42.500Z,64.26
2022-11-25T20:55:45.188Z,64.19
2022-11-25T20:58:47.675Z,64.30
2022-11-25T21:01:50.215Z,64.22
2022-11-25T21:04:51.961Z,64.25
2022-11-25T21:07:55.332Z,64.23
2022-11-25T21:10:58.945Z,64.13
2022-11-25T21:14:00.577Z,64.16
2022-11-25T21:17:02.240Z,64.31
2022-11-25T21:20:04.097Z,64.34
2022-11-25T21:23:07.095Z,64.11
2022-11-25T21:26:27.771Z,64.23
2022-11-25T21:29:31.161Z,64.33
2022-11-25T21:32:32.833Z,64.24
2022-11-25T21:35:35.599Z,64.32
2022-11-25T21:38:37.242Z,64.27
2022-11-25T21:41:38.839Z,64.35
2022-11-25T21:44:42.111Z,64.25
2022-11-25T21:47:43.667Z,64.22
2022-11-25T21:50:45.330Z,64.22
2022-11-25T21:53:47.321Z,64.04
2022-11-25T21:56:49.244Z,64.18
2022-11-25T21:59:50.815Z,64.09
2022-11-25T22:02:53.274Z,64.09
2022-11-25T22:05:55.476Z,64.12
2022-11-25T22:08:57.575Z,64.21
2022-11-25T22:11:59.186Z,63.98
2022-11-25T22:15:01.783Z,64.11
2022-11-25T22:18:03.486Z,64.17
2022-11-25T22:21:05.178Z,64.05
2022-11-25T22:24:14.731Z,64.03
2022-11-25T22:27:36.296Z,64.14
2022-11-25T22:30:37.888Z,64.21
2022-11-25T22:33:39.487Z,64.18
2022-11-25T22:36:41.049Z,64.02
2022-11-25T22:39:42.593Z,65.12
2022-11-25T22:42:47.464Z,64.52
2022-11-25T22:45:49.475Z,64.22
2022-11-25T22:48:51.095Z,64.22
2022-11-25T22:51:52.735Z,64.08
2022-11-25T22:54:54.803Z,64.03
2022-11-25T22:57:58.856Z,64.21
2022-11-25T23:01:00.546Z,63.89
2022-11-25T23:04:03.063Z,64.08
2022-11-25T23:07:12.245Z,63.99
2022-11-25T23:10:16.484Z,64.03
2022-11-25T23:13:20.281Z,64.10
2022-11-25T23:16:21.929Z,64.01
2022-11-25T23:19:23.534Z,64.08
2022-11-25T23:22:25.151Z,63.79
2022-11-25T23:25:26.696Z,64.06
2022-11-25T23:28:28.242Z,64.08
2022-11-25T23:31:29.982Z,64.04
2022-11-25T23:34:32.399Z,64.19
2022-11-25T23:37:34.087Z,64.29
2022-11-25T23:40:35.672Z,64.21
2022-11-25T23:43:37.195Z,64.29
2022-11-25T23:46:40.455Z,64.39
2022-11-25T23:49:44.547Z,64.38
2022-11-25T23:52:46.152Z,64.32
2022-11-25T23:55:47.884Z,64.38
2022-11-25T23:58:52.234Z,64.36
